sensor_id;sensor_type;location;lat;lon;timestamp;temperature;humidity
44229;DHT22;29904;51.058;5.378;2023-06-14T00:01:50;19.30;95.90
44229;DHT22;29904;51.058;5.378;2023-06-14T00:04:16;19.20;95.90
44229;DHT22;29904;51.058;5.378;2023-06-14T00:06:48;19.20;96.30
44229;DHT22;29904;51.058;5.378;2023-06-14T00:09:16;19.20;96.40
44229;DHT22;29904;51.058;5.378;2023-06-14T00:11:43;19.10;96.70
44229;DHT22;29904;51.058;5.378;2023-06-14T00:14:11;19.10;96.90
44229;DHT22;29904;51.058;5.378;2023-06-14T00:16:37;19.00;97.00
44229;DHT22;29904;51.058;5.378;2023-06-14T00:19:04;19.00;97.40
44229;DHT22;29904;51.058;5.378;2023-06-14T00:21:31;19.00;97.50
44229;DHT22;29904;51.058;5.378;2023-06-14T00:24:01;19.00;97.60
44229;DHT22;29904;51.058;5.378;2023-06-14T00:26:29;18.90;97.90
44229;DHT22;29904;51.058;5.378;2023-06-14T00:28:55;18.90;98.10
44229;DHT22;29904;51.058;5.378;2023-06-14T00:31:22;18.90;98.30
44229;DHT22;29904;51.058;5.378;2023-06-14T00:33:48;18.80;98.50
44229;DHT22;29904;51.058;5.378;2023-06-14T00:36:14;18.80;98.60
44229;DHT22;29904;51.058;5.378;2023-06-14T00:38:40;18.80;98.90
44229;DHT22;29904;51.058;5.378;2023-06-14T00:41:05;18.80;99.00
44229;DHT22;29904;51.058;5.378;2023-06-14T00:43:31;18.80;99.30
44229;DHT22;29904;51.058;5.378;2023-06-14T00:45:57;18.70;99.40
44229;DHT22;29904;51.058;5.378;2023-06-14T00:48:24;18.70;99.70
44229;DHT22;29904;51.058;5.378;2023-06-14T00:50:50;18.70;99.80
44229;DHT22;29904;51.058;5.378;2023-06-14T00:53:20;18.70;99.90
44229;DHT22;29904;51.058;5.378;2023-06-14T00:55:48;18.60;99.90
44229;DHT22;29904;51.058;5.378;2023-06-14T00:58:15;18.60;99.90
44229;DHT22;29904;51.058;5.378;2023-06-14T01:00:43;18.50;99.90
44229;DHT22;29904;51.058;5.378;2023-06-14T01:03:09;18.50;99.90
44229;DHT22;29904;51.058;5.378;2023-06-14T01:05:38;18.50;99.90
44229;DHT22;29904;51.058;5.378;2023-06-14T01:10:32;18.40;99.90
44229;DHT22;29904;51.058;5.378;2023-06-14T01:16:05;18.30;99.90
44229;DHT22;29904;51.058;5.378;2023-06-14T01:18:33;18.20;99.90
44229;DHT22;29904;51.058;5.378;2023-06-14T01:20:59;18.20;99.90
44229;DHT22;29904;51.058;5.378;2023-06-14T01:23:25;18.20;99.90
44229;DHT22;29904;51.058;5.378;2023-06-14T01:25:58;18.10;99.90
44229;DHT22;29904;51.058;5.378;2023-06-14T01:28:25;18.10;99.90
44229;DHT22;29904;51.058;5.378;2023-06-14T01:30:53;18.10;99.90
44229;DHT22;29904;51.058;5.378;2023-06-14T01:33:25;18.10;99.90
44229;DHT22;29904;51.058;5.378;2023-06-14T01:35:52;18.10;99.90
44229;DHT22;29904;51.058;5.378;2023-06-14T01:38:21;18.00;99.90
44229;DHT22;29904;51.058;5.378;2023-06-14T01:40:48;18.00;99.90
44229;DHT22;29904;51.058;5.378;2023-06-14T01:43:14;17.90;99.90
44229;DHT22;29904;51.058;5.378;2023-06-14T01:45:46;17.90;99.90
44229;DHT22;29904;51.058;5.378;2023-06-14T01:48:14;17.80;99.90
44229;DHT22;29904;51.058;5.378;2023-06-14T01:50:40;17.70;99.90
44229;DHT22;29904;51.058;5.378;2023-06-14T01:53:10;17.70;99.90
44229;DHT22;29904;51.058;5.378;2023-06-14T01:55:36;17.70;99.90
44229;DHT22;29904;51.058;5.378;2023-06-14T01:58:10;17.70;99.90
44229;DHT22;29904;51.058;5.378;2023-06-14T02:00:36;17.60;99.90
44229;DHT22;29904;51.058;5.378;2023-06-14T02:03:02;17.60;99.90
44229;DHT22;29904;51.058;5.378;2023-06-14T02:05:30;17.50;99.90
44229;DHT22;29904;51.058;5.378;2023-06-14T02:07:55;17.50;99.90
44229;DHT22;29904;51.058;5.378;2023-06-14T02:10:23;17.50;99.90
44229;DHT22;29904;51.058;5.378;2023-06-14T02:12:49;17.50;99.90
44229;DHT22;29904;51.058;5.378;2023-06-14T02:15:15;17.40;99.90
44229;DHT22;29904;51.058;5.378;2023-06-14T02:17:47;17.40;99.90
44229;DHT22;29904;51.058;5.378;2023-06-14T02:20:14;17.40;99.90
44229;DHT22;29904;51.058;5.378;2023-06-14T02:22:41;17.30;99.90
44229;DHT22;29904;51.058;5.378;2023-06-14T02:25:07;17.30;99.90
44229;DHT22;29904;51.058;5.378;2023-06-14T02:27:35;17.20;99.90
44229;DHT22;29904;51.058;5.378;2023-06-14T02:30:01;17.20;99.90
44229;DHT22;29904;51.058;5.378;2023-06-14T02:32:27;17.10;99.90
44229;DHT22;29904;51.058;5.378;2023-06-14T02:34:55;17.10;99.90
44229;DHT22;29904;51.058;5.378;2023-06-14T02:37:21;17.00;99.90
44229;DHT22;29904;51.058;5.378;2023-06-14T02:39:46;17.00;99.90
44229;DHT22;29904;51.058;5.378;2023-06-14T02:42:12;17.00;99.90
44229;DHT22;29904;51.058;5.378;2023-06-14T02:44:40;16.90;99.90
44229;DHT22;29904;51.058;5.378;2023-06-14T02:47:07;16.90;99.90
44229;DHT22;29904;51.058;5.378;2023-06-14T02:49:32;16.90;99.90
44229;DHT22;29904;51.058;5.378;2023-06-14T02:51:59;16.80;99.90
44229;DHT22;29904;51.058;5.378;2023-06-14T02:54:25;16.80;99.90
44229;DHT22;29904;51.058;5.378;2023-06-14T02:56:50;16.80;99.90
44229;DHT22;29904;51.058;5.378;2023-06-14T02:59:18;16.80;99.90
44229;DHT22;29904;51.058;5.378;2023-06-14T03:01:44;16.80;99.90
44229;DHT22;29904;51.058;5.378;2023-06-14T03:04:10;16.70;99.90
44229;DHT22;29904;51.058;5.378;2023-06-14T03:06:38;16.70;99.90
44229;DHT22;29904;51.058;5.378;2023-06-14T03:09:05;16.70;99.90
44229;DHT22;29904;51.058;5.378;2023-06-14T03:11:31;16.60;99.90
44229;DHT22;29904;51.058;5.378;2023-06-14T03:13:57;16.60;99.90
44229;DHT22;29904;51.058;5.378;2023-06-14T03:16:23;16.60;99.90
44229;DHT22;29904;51.058;5.378;2023-06-14T03:18:50;16.60;99.90
44229;DHT22;29904;51.058;5.378;2023-06-14T03:21:19;16.50;99.90
44229;DHT22;29904;51.058;5.378;2023-06-14T03:23:45;16.60;99.90
44229;DHT22;29904;51.058;5.378;2023-06-14T03:26:11;16.50;99.90
44229;DHT22;29904;51.058;5.378;2023-06-14T03:28:45;16.50;99.90
44229;DHT22;29904;51.058;5.378;2023-06-14T03:31:12;16.50;99.90
44229;DHT22;29904;51.058;5.378;2023-06-14T03:33:39;16.50;99.90
44229;DHT22;29904;51.058;5.378;2023-06-14T03:36:05;16.50;99.90
44229;DHT22;29904;51.058;5.378;2023-06-14T03:38:32;16.50;99.90
44229;DHT22;29904;51.058;5.378;2023-06-14T03:40:58;16.40;99.90
44229;DHT22;29904;51.058;5.378;2023-06-14T03:43:24;16.40;99.90
44229;DHT22;29904;51.058;5.378;2023-06-14T03:45:50;16.40;99.90
44229;DHT22;29904;51.058;5.378;2023-06-14T03:48:16;16.40;99.90
44229;DHT22;29904;51.058;5.378;2023-06-14T03:50:42;16.40;99.90
44229;DHT22;29904;51.058;5.378;2023-06-14T03:53:10;16.40;99.90
44229;DHT22;29904;51.058;5.378;2023-06-14T03:55:36;16.40;99.90
44229;DHT22;29904;51.058;5.378;2023-06-14T03:58:03;16.40;99.90
44229;DHT22;29904;51.058;5.378;2023-06-14T04:00:31;16.40;99.90
44229;DHT22;29904;51.058;5.378;2023-06-14T04:02:57;16.40;99.90
44229;DHT22;29904;51.058;5.378;2023-06-14T04:05:23;16.40;99.90
44229;DHT22;29904;51.058;5.378;2023-06-14T04:07:53;16.50;99.90
44229;DHT22;29904;51.058;5.378;2023-06-14T04:10:22;16.50;99.90
44229;DHT22;29904;51.058;5.378;2023-06-14T04:12:48;16.50;99.90
44229;DHT22;29904;51.058;5.378;2023-06-14T04:15:15;16.50;99.90
44229;DHT22;29904;51.058;5.378;2023-06-14T04:17:40;16.50;99.90
44229;DHT22;29904;51.058;5.378;2023-06-14T04:20:07;16.60;99.90
44229;DHT22;29904;51.058;5.378;2023-06-14T04:22:37;16.60;99.90
44229;DHT22;29904;51.058;5.378;2023-06-14T04:25:03;16.60;99.90
44229;DHT22;29904;51.058;5.378;2023-06-14T04:27:31;16.60;99.90
44229;DHT22;29904;51.058;5.378;2023-06-14T04:29:59;16.70;99.90
44229;DHT22;29904;51.058;5.378;2023-06-14T04:32:28;16.70;99.90
44229;DHT22;29904;51.058;5.378;2023-06-14T04:34:58;16.70;99.90
44229;DHT22;29904;51.058;5.378;2023-06-14T04:37:25;16.80;99.90
44229;DHT22;29904;51.058;5.378;2023-06-14T04:39:54;16.80;99.90
44229;DHT22;29904;51.058;5.378;2023-06-14T04:42:21;16.90;99.90
44229;DHT22;29904;51.058;5.378;2023-06-14T04:44:51;16.90;99.90
44229;DHT22;29904;51.058;5.378;2023-06-14T04:47:19;16.90;99.90
44229;DHT22;29904;51.058;5.378;2023-06-14T04:49:46;17.00;99.90
44229;DHT22;29904;51.058;5.378;2023-06-14T04:52:13;17.00;99.90
44229;DHT22;29904;51.058;5.378;2023-06-14T04:54:39;17.10;99.90
44229;DHT22;29904;51.058;5.378;2023-06-14T04:57:09;17.20;99.90
44229;DHT22;29904;51.058;5.378;2023-06-14T04:59:40;17.20;99.90
44229;DHT22;29904;51.058;5.378;2023-06-14T05:02:06;17.30;99.90
44229;DHT22;29904;51.058;5.378;2023-06-14T05:04:32;17.80;99.90
44229;DHT22;29904;51.058;5.378;2023-06-14T05:06:59;18.20;99.90
44229;DHT22;29904;51.058;5.378;2023-06-14T05:09:27;18.30;99.90
44229;DHT22;29904;51.058;5.378;2023-06-14T05:11:52;18.30;99.90
44229;DHT22;29904;51.058;5.378;2023-06-14T05:14:18;18.50;99.90
44229;DHT22;29904;51.058;5.378;2023-06-14T05:16:44;18.60;99.90
44229;DHT22;29904;51.058;5.378;2023-06-14T05:19:11;18.60;99.90
44229;DHT22;29904;51.058;5.378;2023-06-14T05:21:38;18.40;99.90
44229;DHT22;29904;51.058;5.378;2023-06-14T05:24:04;18.40;99.90
44229;DHT22;29904;51.058;5.378;2023-06-14T05:26:30;18.30;99.90
44229;DHT22;29904;51.058;5.378;2023-06-14T05:28:57;18.20;99.90
44229;DHT22;29904;51.058;5.378;2023-06-14T05:31:24;18.20;99.90
44229;DHT22;29904;51.058;5.378;2023-06-14T05:33:52;18.30;99.90
44229;DHT22;29904;51.058;5.378;2023-06-14T05:36:18;18.30;99.90
44229;DHT22;29904;51.058;5.378;2023-06-14T05:38:45;18.40;99.90
44229;DHT22;29904;51.058;5.378;2023-06-14T05:41:13;18.60;99.90
44229;DHT22;29904;51.058;5.378;2023-06-14T05:43:39;18.60;99.90
44229;DHT22;29904;51.058;5.378;2023-06-14T05:46:05;18.60;99.90
44229;DHT22;29904;51.058;5.378;2023-06-14T05:48:31;18.70;99.90
44229;DHT22;29904;51.058;5.378;2023-06-14T05:50:56;18.80;99.90
44229;DHT22;29904;51.058;5.378;2023-06-14T05:53:22;18.80;99.90
44229;DHT22;29904;51.058;5.378;2023-06-14T05:55:49;18.90;99.90
44229;DHT22;29904;51.058;5.378;2023-06-14T05:58:17;19.00;99.90
44229;DHT22;29904;51.058;5.378;2023-06-14T06:00:43;19.10;99.90
44229;DHT22;29904;51.058;5.378;2023-06-14T06:03:10;19.10;99.90
44229;DHT22;29904;51.058;5.378;2023-06-14T06:05:36;19.10;99.90
44229;DHT22;29904;51.058;5.378;2023-06-14T06:08:02;19.20;99.90
44229;DHT22;29904;51.058;5.378;2023-06-14T06:10:28;19.30;99.90
44229;DHT22;29904;51.058;5.378;2023-06-14T06:12:54;19.40;99.90
44229;DHT22;29904;51.058;5.378;2023-06-14T06:15:20;19.60;99.90
44229;DHT22;29904;51.058;5.378;2023-06-14T06:17:46;19.60;99.90
44229;DHT22;29904;51.058;5.378;2023-06-14T06:20:12;19.80;99.90
44229;DHT22;29904;51.058;5.378;2023-06-14T06:22:38;20.00;99.90
44229;DHT22;29904;51.058;5.378;2023-06-14T06:25:05;20.30;99.90
44229;DHT22;29904;51.058;5.378;2023-06-14T06:27:33;20.50;99.90
44229;DHT22;29904;51.058;5.378;2023-06-14T06:29:59;20.40;99.90
44229;DHT22;29904;51.058;5.378;2023-06-14T06:32:25;20.40;99.90
44229;DHT22;29904;51.058;5.378;2023-06-14T06:34:52;20.40;99.90
44229;DHT22;29904;51.058;5.378;2023-06-14T06:37:21;20.60;99.90
44229;DHT22;29904;51.058;5.378;2023-06-14T06:39:46;20.80;99.90
44229;DHT22;29904;51.058;5.378;2023-06-14T06:42:13;21.00;99.90
44229;DHT22;29904;51.058;5.378;2023-06-14T06:44:40;21.20;99.90
44229;DHT22;29904;51.058;5.378;2023-06-14T06:47:06;21.20;99.90
44229;DHT22;29904;51.058;5.378;2023-06-14T06:49:32;21.10;99.90
44229;DHT22;29904;51.058;5.378;2023-06-14T06:52:05;21.00;99.90
44229;DHT22;29904;51.058;5.378;2023-06-14T06:54:31;20.90;99.90
44229;DHT22;29904;51.058;5.378;2023-06-14T06:56:58;21.00;99.90
44229;DHT22;29904;51.058;5.378;2023-06-14T06:59:24;21.00;99.90
44229;DHT22;29904;51.058;5.378;2023-06-14T07:01:52;21.00;99.90
44229;DHT22;29904;51.058;5.378;2023-06-14T07:04:17;21.00;99.90
44229;DHT22;29904;51.058;5.378;2023-06-14T07:06:43;21.10;99.90
44229;DHT22;29904;51.058;5.378;2023-06-14T07:09:09;21.10;99.90
44229;DHT22;29904;51.058;5.378;2023-06-14T07:11:39;21.10;99.90
44229;DHT22;29904;51.058;5.378;2023-06-14T07:14:05;21.10;99.90
44229;DHT22;29904;51.058;5.378;2023-06-14T07:16:33;21.10;99.90
44229;DHT22;29904;51.058;5.378;2023-06-14T07:18:59;21.20;99.90
44229;DHT22;29904;51.058;5.378;2023-06-14T07:21:26;21.30;99.90
44229;DHT22;29904;51.058;5.378;2023-06-14T07:23:54;21.40;99.90
44229;DHT22;29904;51.058;5.378;2023-06-14T07:26:20;21.40;99.90
44229;DHT22;29904;51.058;5.378;2023-06-14T07:28:47;21.40;99.90
44229;DHT22;29904;51.058;5.378;2023-06-14T07:31:16;21.50;99.90
44229;DHT22;29904;51.058;5.378;2023-06-14T07:33:42;21.50;99.90
44229;DHT22;29904;51.058;5.378;2023-06-14T07:36:08;21.70;99.90
44229;DHT22;29904;51.058;5.378;2023-06-14T07:38:35;21.70;99.90
44229;DHT22;29904;51.058;5.378;2023-06-14T07:41:03;21.80;99.90
44229;DHT22;29904;51.058;5.378;2023-06-14T07:43:29;22.00;99.90
44229;DHT22;29904;51.058;5.378;2023-06-14T07:45:55;22.10;99.90
44229;DHT22;29904;51.058;5.378;2023-06-14T07:48:21;22.30;99.90
44229;DHT22;29904;51.058;5.378;2023-06-14T07:50:46;22.60;99.90
44229;DHT22;29904;51.058;5.378;2023-06-14T07:53:12;23.20;99.90
44229;DHT22;29904;51.058;5.378;2023-06-14T07:55:38;24.00;99.90
44229;DHT22;29904;51.058;5.378;2023-06-14T07:58:08;24.80;99.90
44229;DHT22;29904;51.058;5.378;2023-06-14T08:00:34;25.10;98.60
44229;DHT22;29904;51.058;5.378;2023-06-14T08:03:00;25.30;97.90
44229;DHT22;29904;51.058;5.378;2023-06-14T08:05:27;25.50;97.50
44229;DHT22;29904;51.058;5.378;2023-06-14T08:07:53;25.80;97.00
44229;DHT22;29904;51.058;5.378;2023-06-14T08:10:21;26.00;97.00
44229;DHT22;29904;51.058;5.378;2023-06-14T08:12:48;26.20;95.40
44229;DHT22;29904;51.058;5.378;2023-06-14T08:15:16;26.20;95.30
44229;DHT22;29904;51.058;5.378;2023-06-14T08:17:45;26.40;95.80
44229;DHT22;29904;51.058;5.378;2023-06-14T08:20:12;26.50;94.00
44229;DHT22;29904;51.058;5.378;2023-06-14T08:22:39;26.60;94.30
44229;DHT22;29904;51.058;5.378;2023-06-14T08:25:08;26.80;94.30
44229;DHT22;29904;51.058;5.378;2023-06-14T08:27:36;26.70;93.40
44229;DHT22;29904;51.058;5.378;2023-06-14T08:30:05;26.80;92.40
44229;DHT22;29904;51.058;5.378;2023-06-14T08:32:30;26.80;91.80
44229;DHT22;29904;51.058;5.378;2023-06-14T08:34:58;26.70;91.60
44229;DHT22;29904;51.058;5.378;2023-06-14T08:37:24;26.70;91.60
44229;DHT22;29904;51.058;5.378;2023-06-14T08:39:52;26.80;91.40
44229;DHT22;29904;51.058;5.378;2023-06-14T08:42:19;26.70;90.50
44229;DHT22;29904;51.058;5.378;2023-06-14T08:44:47;26.50;91.10
44229;DHT22;29904;51.058;5.378;2023-06-14T08:47:13;26.60;90.10
44229;DHT22;29904;51.058;5.378;2023-06-14T08:49:43;26.70;90.20
44229;DHT22;29904;51.058;5.378;2023-06-14T08:52:10;26.70;89.30
44229;DHT22;29904;51.058;5.378;2023-06-14T08:54:38;26.60;88.50
44229;DHT22;29904;51.058;5.378;2023-06-14T08:57:11;26.50;88.80
44229;DHT22;29904;51.058;5.378;2023-06-14T08:59:47;26.60;90.20
44229;DHT22;29904;51.058;5.378;2023-06-14T09:02:15;26.80;89.00
44229;DHT22;29904;51.058;5.378;2023-06-14T09:04:43;27.10;87.60
44229;DHT22;29904;51.058;5.378;2023-06-14T09:07:10;27.20;86.10
44229;DHT22;29904;51.058;5.378;2023-06-14T09:09:41;27.30;85.60
44229;DHT22;29904;51.058;5.378;2023-06-14T09:12:11;27.20;84.80
44229;DHT22;29904;51.058;5.378;2023-06-14T09:14:38;27.30;86.00
44229;DHT22;29904;51.058;5.378;2023-06-14T09:17:05;27.60;87.60
44229;DHT22;29904;51.058;5.378;2023-06-14T09:19:31;27.60;84.60
44229;DHT22;29904;51.058;5.378;2023-06-14T09:21:59;27.50;84.80
44229;DHT22;29904;51.058;5.378;2023-06-14T09:24:25;27.50;85.20
44229;DHT22;29904;51.058;5.378;2023-06-14T09:26:53;27.60;83.00
44229;DHT22;29904;51.058;5.378;2023-06-14T09:29:19;27.60;81.60
44229;DHT22;29904;51.058;5.378;2023-06-14T09:31:48;27.50;81.10
44229;DHT22;29904;51.058;5.378;2023-06-14T09:34:16;27.40;82.30
44229;DHT22;29904;51.058;5.378;2023-06-14T09:36:45;27.40;80.00
44229;DHT22;29904;51.058;5.378;2023-06-14T09:39:17;27.30;79.50
44229;DHT22;29904;51.058;5.378;2023-06-14T09:41:43;27.10;79.60
44229;DHT22;29904;51.058;5.378;2023-06-14T09:44:11;27.20;80.50
44229;DHT22;29904;51.058;5.378;2023-06-14T09:46:39;27.20;80.20
44229;DHT22;29904;51.058;5.378;2023-06-14T09:49:06;27.20;78.80
44229;DHT22;29904;51.058;5.378;2023-06-14T09:51:33;27.30;79.20
44229;DHT22;29904;51.058;5.378;2023-06-14T09:54:02;27.40;80.00
44229;DHT22;29904;51.058;5.378;2023-06-14T09:56:32;27.30;80.00
44229;DHT22;29904;51.058;5.378;2023-06-14T09:59:01;27.40;80.90
44229;DHT22;29904;51.058;5.378;2023-06-14T10:01:31;27.40;80.00
44229;DHT22;29904;51.058;5.378;2023-06-14T10:04:06;27.50;77.10
44229;DHT22;29904;51.058;5.378;2023-06-14T10:06:41;27.70;75.20
44229;DHT22;29904;51.058;5.378;2023-06-14T10:09:11;27.80;73.70
44229;DHT22;29904;51.058;5.378;2023-06-14T10:11:37;27.70;72.10
44229;DHT22;29904;51.058;5.378;2023-06-14T10:14:09;27.70;73.60
44229;DHT22;29904;51.058;5.378;2023-06-14T10:17:00;27.50;72.10
44229;DHT22;29904;51.058;5.378;2023-06-14T10:19:47;27.60;70.70
44229;DHT22;29904;51.058;5.378;2023-06-14T10:22:29;27.60;74.00
44229;DHT22;29904;51.058;5.378;2023-06-14T10:24:56;27.70;72.80
44229;DHT22;29904;51.058;5.378;2023-06-14T10:27:23;27.60;72.30
44229;DHT22;29904;51.058;5.378;2023-06-14T10:32:20;27.60;70.30
44229;DHT22;29904;51.058;5.378;2023-06-14T10:34:54;27.70;71.10
44229;DHT22;29904;51.058;5.378;2023-06-14T10:37:20;27.50;68.40
44229;DHT22;29904;51.058;5.378;2023-06-14T10:39:49;27.40;69.10
44229;DHT22;29904;51.058;5.378;2023-06-14T10:42:15;27.50;68.70
44229;DHT22;29904;51.058;5.378;2023-06-14T10:49:56;27.90;67.00
44229;DHT22;29904;51.058;5.378;2023-06-14T10:52:25;28.00;66.90
44229;DHT22;29904;51.058;5.378;2023-06-14T10:57:35;28.30;65.80
44229;DHT22;29904;51.058;5.378;2023-06-14T11:00:01;28.30;63.30
44229;DHT22;29904;51.058;5.378;2023-06-14T11:05:25;28.20;65.00
44229;DHT22;29904;51.058;5.378;2023-06-14T11:10:59;28.00;64.90
44229;DHT22;29904;51.058;5.378;2023-06-14T11:13:26;28.10;62.30
44229;DHT22;29904;51.058;5.378;2023-06-14T11:15:52;28.10;62.90
44229;DHT22;29904;51.058;5.378;2023-06-14T11:18:19;28.30;65.20
44229;DHT22;29904;51.058;5.378;2023-06-14T11:20:49;28.50;63.00
44229;DHT22;29904;51.058;5.378;2023-06-14T11:23:15;28.50;62.40
44229;DHT22;29904;51.058;5.378;2023-06-14T11:25:41;28.40;60.90
44229;DHT22;29904;51.058;5.378;2023-06-14T11:28:08;28.30;61.70
44229;DHT22;29904;51.058;5.378;2023-06-14T11:30:34;28.40;63.30
44229;DHT22;29904;51.058;5.378;2023-06-14T11:33:00;28.30;60.50
44229;DHT22;29904;51.058;5.378;2023-06-14T11:35:26;28.30;62.40
44229;DHT22;29904;51.058;5.378;2023-06-14T11:37:56;28.30;62.00
44229;DHT22;29904;51.058;5.378;2023-06-14T11:40:24;28.40;61.10
44229;DHT22;29904;51.058;5.378;2023-06-14T11:42:54;28.30;59.90
44229;DHT22;29904;51.058;5.378;2023-06-14T11:45:25;28.40;61.60
44229;DHT22;29904;51.058;5.378;2023-06-14T11:47:51;28.50;61.90
44229;DHT22;29904;51.058;5.378;2023-06-14T11:50:16;28.60;62.20
44229;DHT22;29904;51.058;5.378;2023-06-14T11:52:43;28.90;63.20
44229;DHT22;29904;51.058;5.378;2023-06-14T11:55:08;28.80;61.70
44229;DHT22;29904;51.058;5.378;2023-06-14T11:57:35;28.50;61.90
44229;DHT22;29904;51.058;5.378;2023-06-14T12:00:06;28.40;62.90
44229;DHT22;29904;51.058;5.378;2023-06-14T12:02:37;28.50;62.20
44229;DHT22;29904;51.058;5.378;2023-06-14T12:05:05;28.80;65.20
44229;DHT22;29904;51.058;5.378;2023-06-14T12:07:36;29.10;64.60
44229;DHT22;29904;51.058;5.378;2023-06-14T12:10:03;29.10;63.20
44229;DHT22;29904;51.058;5.378;2023-06-14T12:12:35;28.90;63.00
44229;DHT22;29904;51.058;5.378;2023-06-14T12:15:07;29.00;64.50
44229;DHT22;29904;51.058;5.378;2023-06-14T12:17:37;29.00;62.90
44229;DHT22;29904;51.058;5.378;2023-06-14T12:20:12;28.90;63.50
44229;DHT22;29904;51.058;5.378;2023-06-14T12:22:53;29.00;64.40
44229;DHT22;29904;51.058;5.378;2023-06-14T12:25:32;29.00;65.00
44229;DHT22;29904;51.058;5.378;2023-06-14T12:28:05;29.00;64.40
44229;DHT22;29904;51.058;5.378;2023-06-14T12:30:37;29.00;63.00
44229;DHT22;29904;51.058;5.378;2023-06-14T12:33:05;28.90;62.10
44229;DHT22;29904;51.058;5.378;2023-06-14T12:35:31;28.70;63.60
44229;DHT22;29904;51.058;5.378;2023-06-14T12:37:57;28.60;61.50
44229;DHT22;29904;51.058;5.378;2023-06-14T12:40:25;28.70;62.40
44229;DHT22;29904;51.058;5.378;2023-06-14T12:42:52;28.30;64.30
44229;DHT22;29904;51.058;5.378;2023-06-14T12:45:17;28.40;63.20
44229;DHT22;29904;51.058;5.378;2023-06-14T12:47:45;28.40;64.90
44229;DHT22;29904;51.058;5.378;2023-06-14T12:50:10;28.30;63.60
44229;DHT22;29904;51.058;5.378;2023-06-14T12:52:36;28.20;64.10
44229;DHT22;29904;51.058;5.378;2023-06-14T12:55:04;28.10;63.30
44229;DHT22;29904;51.058;5.378;2023-06-14T12:57:29;28.00;63.80
44229;DHT22;29904;51.058;5.378;2023-06-14T12:59:55;28.10;64.70
44229;DHT22;29904;51.058;5.378;2023-06-14T13:02:21;28.40;65.30
44229;DHT22;29904;51.058;5.378;2023-06-14T13:04:49;28.40;66.40
44229;DHT22;29904;51.058;5.378;2023-06-14T13:07:14;28.30;64.60
44229;DHT22;29904;51.058;5.378;2023-06-14T13:09:41;28.40;64.80
44229;DHT22;29904;51.058;5.378;2023-06-14T13:12:07;28.50;63.50
44229;DHT22;29904;51.058;5.378;2023-06-14T13:14:33;28.50;65.80
44229;DHT22;29904;51.058;5.378;2023-06-14T13:17:01;28.50;65.60
44229;DHT22;29904;51.058;5.378;2023-06-14T13:19:29;28.70;65.30
44229;DHT22;29904;51.058;5.378;2023-06-14T13:21:55;28.60;64.90
44229;DHT22;29904;51.058;5.378;2023-06-14T13:24:21;28.70;65.70
44229;DHT22;29904;51.058;5.378;2023-06-14T13:26:48;28.80;65.60
44229;DHT22;29904;51.058;5.378;2023-06-14T13:29:14;28.90;65.00
44229;DHT22;29904;51.058;5.378;2023-06-14T13:31:40;28.70;63.10
44229;DHT22;29904;51.058;5.378;2023-06-14T13:34:06;28.50;64.50
44229;DHT22;29904;51.058;5.378;2023-06-14T13:36:33;28.50;64.20
44229;DHT22;29904;51.058;5.378;2023-06-14T13:39:00;28.50;65.10
44229;DHT22;29904;51.058;5.378;2023-06-14T13:41:27;28.70;63.50
44229;DHT22;29904;51.058;5.378;2023-06-14T13:44:00;28.60;62.50
44229;DHT22;29904;51.058;5.378;2023-06-14T13:46:26;28.40;61.30
44229;DHT22;29904;51.058;5.378;2023-06-14T13:48:52;28.50;62.50
44229;DHT22;29904;51.058;5.378;2023-06-14T13:51:18;28.50;62.10
44229;DHT22;29904;51.058;5.378;2023-06-14T13:53:50;28.50;60.70
44229;DHT22;29904;51.058;5.378;2023-06-14T13:56:18;28.50;60.70
44229;DHT22;29904;51.058;5.378;2023-06-14T13:58:44;28.50;61.70
44229;DHT22;29904;51.058;5.378;2023-06-14T14:01:10;28.20;61.60
44229;DHT22;29904;51.058;5.378;2023-06-14T14:03:39;28.10;63.00
44229;DHT22;29904;51.058;5.378;2023-06-14T14:06:05;28.20;63.60
44229;DHT22;29904;51.058;5.378;2023-06-14T14:08:32;28.30;64.20
44229;DHT22;29904;51.058;5.378;2023-06-14T14:10:58;28.40;64.70
44229;DHT22;29904;51.058;5.378;2023-06-14T14:13:24;28.60;63.80
44229;DHT22;29904;51.058;5.378;2023-06-14T14:15:50;28.60;63.10
44229;DHT22;29904;51.058;5.378;2023-06-14T14:18:16;28.70;62.40
44229;DHT22;29904;51.058;5.378;2023-06-14T14:20:42;28.70;61.30
44229;DHT22;29904;51.058;5.378;2023-06-14T14:23:08;28.80;61.50
44229;DHT22;29904;51.058;5.378;2023-06-14T14:25:34;29.00;62.80
44229;DHT22;29904;51.058;5.378;2023-06-14T14:27:59;28.90;62.00
44229;DHT22;29904;51.058;5.378;2023-06-14T14:30:25;28.80;62.60
44229;DHT22;29904;51.058;5.378;2023-06-14T14:32:53;28.60;62.90
44229;DHT22;29904;51.058;5.378;2023-06-14T14:35:21;28.60;63.80
44229;DHT22;29904;51.058;5.378;2023-06-14T14:37:48;28.40;61.10
44229;DHT22;29904;51.058;5.378;2023-06-14T14:40:14;28.10;61.20
44229;DHT22;29904;51.058;5.378;2023-06-14T14:42:40;28.10;62.60
44229;DHT22;29904;51.058;5.378;2023-06-14T14:45:06;28.10;63.70
44229;DHT22;29904;51.058;5.378;2023-06-14T14:47:32;28.10;63.00
44229;DHT22;29904;51.058;5.378;2023-06-14T14:49:58;28.10;63.40
44229;DHT22;29904;51.058;5.378;2023-06-14T14:52:24;28.20;63.30
44229;DHT22;29904;51.058;5.378;2023-06-14T14:54:52;28.30;64.00
44229;DHT22;29904;51.058;5.378;2023-06-14T14:57:19;28.30;63.60
44229;DHT22;29904;51.058;5.378;2023-06-14T14:59:45;28.30;63.00
44229;DHT22;29904;51.058;5.378;2023-06-14T15:02:11;28.10;62.20
44229;DHT22;29904;51.058;5.378;2023-06-14T15:04:36;27.90;62.10
44229;DHT22;29904;51.058;5.378;2023-06-14T15:07:02;28.00;62.70
44229;DHT22;29904;51.058;5.378;2023-06-14T15:09:28;28.10;62.00
44229;DHT22;29904;51.058;5.378;2023-06-14T15:11:53;28.00;63.00
44229;DHT22;29904;51.058;5.378;2023-06-14T15:14:19;28.00;60.40
44229;DHT22;29904;51.058;5.378;2023-06-14T15:16:45;27.90;60.40
44229;DHT22;29904;51.058;5.378;2023-06-14T15:19:12;27.80;61.10
44229;DHT22;29904;51.058;5.378;2023-06-14T15:21:39;27.70;60.60
44229;DHT22;29904;51.058;5.378;2023-06-14T15:24:06;27.70;60.70
44229;DHT22;29904;51.058;5.378;2023-06-14T15:26:33;27.90;60.70
44229;DHT22;29904;51.058;5.378;2023-06-14T15:29:00;28.10;60.70
44229;DHT22;29904;51.058;5.378;2023-06-14T15:31:29;28.20;59.90
44229;DHT22;29904;51.058;5.378;2023-06-14T15:33:57;28.10;59.70
44229;DHT22;29904;51.058;5.378;2023-06-14T15:36:24;28.10;60.60
44229;DHT22;29904;51.058;5.378;2023-06-14T15:38:54;28.20;61.00
44229;DHT22;29904;51.058;5.378;2023-06-14T15:41:20;28.30;61.40
44229;DHT22;29904;51.058;5.378;2023-06-14T15:43:48;28.10;62.70
44229;DHT22;29904;51.058;5.378;2023-06-14T15:46:16;28.10;61.80
44229;DHT22;29904;51.058;5.378;2023-06-14T15:48:43;28.10;63.20
44229;DHT22;29904;51.058;5.378;2023-06-14T15:51:10;28.00;64.70
44229;DHT22;29904;51.058;5.378;2023-06-14T15:53:37;28.00;64.10